createdAt,value
2019-01-16T00:01:45.621Z,2.57
2019-01-16T00:04:22.402Z,2.73
2019-01-16T00:06:59.951Z,2.70
2019-01-16T00:09:31.242Z,2.60
2019-01-16T00:12:24.642Z,2.37
2019-01-16T00:14:55.844Z,2.70
2019-01-16T00:17:40.819Z,2.30
2019-01-16T00:20:15.322Z,2.40
2019-01-16T00:23:01.902Z,2.50
2019-01-16T00:25:33.022Z,2.63
2019-01-16T00:28:17.061Z,2.70
2019-01-16T00:30:54.401Z,2.67
2019-01-16T00:33:41.462Z,2.70
2019-01-16T00:36:30.622Z,3.00
2019-01-16T00:39:01.980Z,3.43
2019-01-16T00:41:35.690Z,6.30
2019-01-16T00:44:09.589Z,5.90
2019-01-16T00:46:51.062Z,4.83
2019-01-16T00:49:24.403Z,3.77
2019-01-16T00:52:12.197Z,3.17
2019-01-16T00:54:43.338Z,3.03
2019-01-16T00:57:22.217Z,2.67
2019-01-16T01:00:09.934Z,2.77
2019-01-16T01:02:50.262Z,2.40
2019-01-16T01:05:21.722Z,2.03
2019-01-16T01:07:58.722Z,2.20
2019-01-16T01:10:40.130Z,2.13
2019-01-16T01:13:23.422Z,1.73
2019-01-16T01:16:04.103Z,1.90
2019-01-16T01:18:40.666Z,1.93
2019-01-16T01:21:23.762Z,2.00
2019-01-16T01:24:03.596Z,2.10
2019-01-16T01:26:50.462Z,1.83
2019-01-16T01:29:27.663Z,1.97
2019-01-16T01:32:00.164Z,1.90
2019-01-16T01:34:32.097Z,2.40
2019-01-16T01:37:07.019Z,2.10
2019-01-16T01:39:38.221Z,2.27
2019-01-16T01:42:26.581Z,2.00
2019-01-16T01:45:14.077Z,1.80
2019-01-16T01:47:48.066Z,2.00
2019-01-16T01:50:30.698Z,1.80
2019-01-16T01:53:10.397Z,2.00
2019-01-16T01:58:18.078Z,1.60
2019-01-16T02:01:08.724Z,1.70
2019-01-16T02:03:59.313Z,1.70
2019-01-16T02:06:40.166Z,2.23
2019-01-16T02:09:11.404Z,1.60
2019-01-16T02:11:58.465Z,1.40
2019-01-16T02:14:42.055Z,1.70
2019-01-16T02:17:13.387Z,1.50
2019-01-16T02:19:44.363Z,2.13
2019-01-16T02:22:15.765Z,1.60
2019-01-16T02:24:59.865Z,1.60
2019-01-16T02:27:30.886Z,1.70
2019-01-16T02:30:07.566Z,1.90
2019-01-16T02:32:39.186Z,1.60
2019-01-16T02:35:20.747Z,1.60
2019-01-16T02:37:54.885Z,1.70
2019-01-16T02:40:30.365Z,1.90
2019-01-16T02:43:01.786Z,1.90
2019-01-16T02:45:51.786Z,1.80
2019-01-16T02:48:25.466Z,1.83
2019-01-16T02:50:57.823Z,2.10
2019-01-16T02:53:29.368Z,1.87
2019-01-16T02:56:00.045Z,1.80
2019-01-16T02:58:34.604Z,1.73
2019-01-16T03:01:06.065Z,1.53
2019-01-16T03:03:52.037Z,1.70
2019-01-16T03:06:39.237Z,2.33
2019-01-16T03:09:13.859Z,1.90
2019-01-16T03:11:50.677Z,2.00
2019-01-16T03:14:37.759Z,2.00
2019-01-16T03:17:09.019Z,2.03
2019-01-16T03:19:40.396Z,1.90
2019-01-16T03:22:14.741Z,2.07
2019-01-16T03:24:45.859Z,2.03
2019-01-16T03:27:19.977Z,2.00
2019-01-16T03:29:50.821Z,1.70
2019-01-16T03:32:27.823Z,2.03
2019-01-16T03:35:04.839Z,1.87
2019-01-16T03:37:39.443Z,1.73
2019-01-16T03:40:31.380Z,2.00
2019-01-16T03:43:02.379Z,1.87
2019-01-16T03:45:53.922Z,1.63
2019-01-16T03:48:25.058Z,1.80
2019-01-16T03:50:59.003Z,2.00
2019-01-16T03:53:45.020Z,2.00
2019-01-16T03:56:15.719Z,1.90
2019-01-16T03:58:52.538Z,2.00
2019-01-16T04:01:31.735Z,2.17
2019-01-16T04:04:20.187Z,1.87
2019-01-16T04:06:53.607Z,2.00
2019-01-16T04:09:41.127Z,1.90
2019-01-16T04:12:24.306Z,2.10
2019-01-16T04:15:11.367Z,2.30
2019-01-16T04:17:59.345Z,2.67
2019-01-16T04:20:30.148Z,2.63
2019-01-16T04:23:16.466Z,3.17
2019-01-16T04:25:50.587Z,2.57
2019-01-16T04:28:21.446Z,2.73
2019-01-16T04:30:52.246Z,2.83
2019-01-16T04:33:23.347Z,2.50
2019-01-16T04:36:15.766Z,2.60
2019-01-16T04:38:49.989Z,2.70
2019-01-16T04:41:39.851Z,3.23
2019-01-16T04:44:10.868Z,3.10
2019-01-16T04:47:01.506Z,3.10
2019-01-16T04:49:35.267Z,2.40
2019-01-16T04:52:23.100Z,2.77
2019-01-16T04:55:09.166Z,2.40
2019-01-16T04:57:42.936Z,2.40
2019-01-16T05:00:15.122Z,2.60
2019-01-16T05:02:58.232Z,2.83
2019-01-16T05:05:35.085Z,2.60
2019-01-16T05:08:09.385Z,2.27
2019-01-16T05:10:46.385Z,2.40
2019-01-16T05:13:19.998Z,2.50
2019-01-16T05:15:51.380Z,2.33
2019-01-16T05:18:28.458Z,2.47
2019-01-16T05:21:15.878Z,2.30
2019-01-16T05:23:48.099Z,3.10
2019-01-16T05:26:18.896Z,6.10
2019-01-16T05:28:49.757Z,6.23
2019-01-16T05:31:30.359Z,6.70
2019-01-16T05:34:04.158Z,6.20
2019-01-16T05:36:47.100Z,7.23
2019-01-16T05:39:30.140Z,6.33
2019-01-16T05:42:16.617Z,6.10
2019-01-16T05:44:47.701Z,6.63
2019-01-16T05:47:33.659Z,6.83
2019-01-16T05:50:25.637Z,6.30
2019-01-16T05:52:56.619Z,6.20
2019-01-16T05:55:34.117Z,5.80
2019-01-16T05:58:05.536Z,5.23
2019-01-16T06:00:39.747Z,5.00
2019-01-16T06:03:26.186Z,4.97
2019-01-16T06:06:00.488Z,4.50
2019-01-16T06:08:31.348Z,5.07
2019-01-16T06:11:04.988Z,4.70
2019-01-16T06:13:45.246Z,3.97
2019-01-16T06:16:27.986Z,3.40
2019-01-16T06:19:10.847Z,3.20
2019-01-16T06:21:44.867Z,3.57
2019-01-16T06:24:24.506Z,3.83
2019-01-16T06:26:58.567Z,3.57
2019-01-16T06:29:38.447Z,3.40
2019-01-16T06:32:18.705Z,3.63
2019-01-16T06:34:54.277Z,5.70
2019-01-16T06:37:41.737Z,4.63
2019-01-16T06:40:31.896Z,5.03
2019-01-16T06:43:21.218Z,4.27
2019-01-16T06:45:55.535Z,3.70
2019-01-16T06:48:41.556Z,3.93
2019-01-16T06:51:17.819Z,3.97
2019-01-16T06:53:54.476Z,3.27
2019-01-16T06:56:31.739Z,3.80
2019-01-16T06:59:08.796Z,3.60
2019-01-16T07:01:55.897Z,4.13
2019-01-16T07:04:32.579Z,4.70
2019-01-16T07:07:15.478Z,3.73
2019-01-16T07:09:53.019Z,4.40
2019-01-16T07:12:33.019Z,4.77
2019-01-16T07:15:25.037Z,4.97
2019-01-16T07:18:12.916Z,4.37
2019-01-16T07:20:43.838Z,4.97
2019-01-16T07:23:20.637Z,4.43
2019-01-16T07:25:55.397Z,11.93
2019-01-16T07:28:33.016Z,4.60
2019-01-16T07:31:09.717Z,5.13
2019-01-16T07:33:48.937Z,5.07
2019-01-16T07:36:19.689Z,5.37
2019-01-16T07:38:55.935Z,4.90
2019-01-16T07:41:42.347Z,5.63
2019-01-16T07:44:25.837Z,4.37
2019-01-16T07:47:02.516Z,4.27
2019-01-16T07:49:48.777Z,4.50
2019-01-16T07:52:19.842Z,4.07
2019-01-16T07:54:50.537Z,4.37
2019-01-16T07:57:30.277Z,5.20
2019-01-16T08:00:19.340Z,5.47
2019-01-16T08:02:53.323Z,5.00
2019-01-16T08:05:29.903Z,4.73
2019-01-16T08:08:10.744Z,5.27
2019-01-16T08:10:44.803Z,4.73
2019-01-16T08:13:16.043Z,4.63
2019-01-16T08:18:42.342Z,4.30
2019-01-16T08:21:16.421Z,4.57
2019-01-16T08:23:56.482Z,3.93
2019-01-16T08:26:45.469Z,4.40
2019-01-16T08:29:20.656Z,4.77
2019-01-16T08:31:51.735Z,4.53
2019-01-16T08:34:34.556Z,4.37
2019-01-16T08:37:09.317Z,4.63
2019-01-16T08:39:53.898Z,3.67
2019-01-16T08:42:24.957Z,3.30
2019-01-16T08:45:11.437Z,3.30
2019-01-16T08:47:48.559Z,3.83
2019-01-16T08:50:38.584Z,3.03
2019-01-16T08:53:18.473Z,3.90
2019-01-16T08:56:07.870Z,3.93
2019-01-16T08:58:55.046Z,4.47
2019-01-16T09:01:32.763Z,4.83
2019-01-16T09:04:14.063Z,4.20
2019-01-16T09:06:44.960Z,4.40
2019-01-16T09:09:16.062Z,5.80
2019-01-16T09:12:03.224Z,5.83
2019-01-16T09:14:34.003Z,6.93
2019-01-16T09:17:09.950Z,6.87
2019-01-16T09:19:40.880Z,6.90
2019-01-16T09:22:23.922Z,6.33
2019-01-16T09:25:04.623Z,7.77
2019-01-16T09:27:41.902Z,7.53
2019-01-16T09:30:15.103Z,9.03
2019-01-16T09:32:54.702Z,10.13
2019-01-16T09:38:20.740Z,9.80
2019-01-16T09:40:57.181Z,9.23
2019-01-16T09:43:28.001Z,4.17
2019-01-16T09:45:59.220Z,3.53
2019-01-16T09:48:43.899Z,3.10
2019-01-16T09:51:20.740Z,3.20
2019-01-16T09:54:07.281Z,2.70
2019-01-16T09:56:41.580Z,2.80
2019-01-16T09:59:21.780Z,3.47
2019-01-16T10:01:52.644Z,3.20
2019-01-16T10:04:32.284Z,3.27
2019-01-16T10:07:04.024Z,3.47
2019-01-16T10:09:35.064Z,3.37
2019-01-16T10:12:22.282Z,3.50
2019-01-16T10:14:56.002Z,5.20
2019-01-16T10:17:29.685Z,5.20
2019-01-16T10:20:17.484Z,5.50
2019-01-16T10:22:51.583Z,4.53
2019-01-16T10:25:28.425Z,7.00
2019-01-16T10:27:59.862Z,5.73
2019-01-16T10:30:37.341Z,4.00
2019-01-16T10:33:11.282Z,4.43
2019-01-16T10:35:59.741Z,4.33
2019-01-16T10:38:38.721Z,3.90
2019-01-16T10:41:12.902Z,4.70
2019-01-16T10:44:00.349Z,4.03
2019-01-16T10:46:48.381Z,4.47
2019-01-16T10:49:25.104Z,4.83
2019-01-16T10:52:02.241Z,4.23
2019-01-16T10:54:33.001Z,4.63
2019-01-16T10:57:04.057Z,4.97
2019-01-16T10:59:51.442Z,4.30
2019-01-16T11:02:25.002Z,4.53
2019-01-16T11:05:11.262Z,4.90
2019-01-16T11:07:57.484Z,4.40
2019-01-16T11:10:28.223Z,4.57
2019-01-16T11:13:08.484Z,5.07
2019-01-16T11:15:42.043Z,4.60
2019-01-16T11:18:12.887Z,4.90
2019-01-16T11:21:01.968Z,4.73
2019-01-16T11:23:45.081Z,4.30
2019-01-16T11:26:16.745Z,4.30
2019-01-16T11:28:47.680Z,4.10
2019-01-16T11:31:27.841Z,7.60
2019-01-16T11:33:58.681Z,12.47
2019-01-16T11:36:32.860Z,11.57
2019-01-16T11:39:12.889Z,12.97
2019-01-16T11:41:43.681Z,11.73
2019-01-16T11:44:23.321Z,12.10
2019-01-16T11:46:55.348Z,13.57
2019-01-16T11:49:43.020Z,14.43
2019-01-16T11:52:16.521Z,13.70
2019-01-16T11:54:50.282Z,14.60
2019-01-16T11:57:30.242Z,15.27
2019-01-16T12:00:06.616Z,15.43
2019-01-16T12:02:54.607Z,17.20
2019-01-16T12:05:34.409Z,16.83
2019-01-16T12:08:11.542Z,17.33
2019-01-16T12:10:45.742Z,16.57
2019-01-16T12:13:20.163Z,17.37
2019-01-16T12:16:08.829Z,19.63
2019-01-16T12:18:46.343Z,18.97
2019-01-16T12:21:26.496Z,17.53
2019-01-16T12:24:07.763Z,18.83
2019-01-16T12:26:38.762Z,18.73
2019-01-16T12:29:18.721Z,18.37
2019-01-16T12:32:01.663Z,14.70
2019-01-16T12:34:35.384Z,11.97
2019-01-16T12:37:16.123Z,11.47
2019-01-16T12:39:47.480Z,9.37
2019-01-16T12:42:20.544Z,12.73
2019-01-16T12:45:03.792Z,19.13
2019-01-16T12:47:34.720Z,19.43
2019-01-16T12:50:13.945Z,19.53
2019-01-16T12:52:54.098Z,13.17
2019-01-16T12:55:42.442Z,10.47
2019-01-16T12:58:13.688Z,8.73
2019-01-16T13:00:57.946Z,8.80
2019-01-16T13:03:31.487Z,7.40
2019-01-16T13:06:14.420Z,7.23
2019-01-16T13:08:54.000Z,7.33
2019-01-16T13:11:42.040Z,7.77
2019-01-16T13:14:30.159Z,8.17
2019-01-16T13:17:01.077Z,10.23
2019-01-16T13:19:32.086Z,11.47
2019-01-16T13:22:21.384Z,11.00
2019-01-16T13:25:07.885Z,10.80
2019-01-16T13:27:44.965Z,11.83
2019-01-16T13:30:32.065Z,12.53
2019-01-16T13:33:09.126Z,10.23
2019-01-16T13:35:39.845Z,10.07
2019-01-16T13:38:19.625Z,11.73
2019-01-16T13:40:50.304Z,10.40
2019-01-16T13:43:30.865Z,11.07
2019-01-16T13:46:16.765Z,10.13
2019-01-16T13:48:52.840Z,11.07
2019-01-16T13:51:46.280Z,11.73
2019-01-16T13:54:29.564Z,11.53
2019-01-16T13:57:15.525Z,10.70
2019-01-16T13:59:55.705Z,10.97
2019-01-16T14:02:32.609Z,12.53
2019-01-16T14:05:03.440Z,13.80
2019-01-16T14:07:50.692Z,13.33
2019-01-16T14:10:30.453Z,11.07
2019-01-16T14:13:04.129Z,9.67
2019-01-16T14:15:52.689Z,7.80
2019-01-16T14:18:23.689Z,8.77
2019-01-16T14:21:00.712Z,7.53
2019-01-16T14:23:43.328Z,7.63
2019-01-16T14:26:20.499Z,6.17
2019-01-16T14:28:54.493Z,7.17
2019-01-16T14:31:25.534Z,9.40
2019-01-16T14:33:59.363Z,11.13
2019-01-16T14:36:34.372Z,10.00
2019-01-16T14:39:24.752Z,13.23
2019-01-16T14:41:58.352Z,20.50
2019-01-16T14:44:38.753Z,17.43
2019-01-16T14:47:17.073Z,16.80
2019-01-16T14:49:53.812Z,17.80
2019-01-16T14:52:43.214Z,15.03
2019-01-16T14:55:17.371Z,15.77
2019-01-16T14:57:48.472Z,17.33
2019-01-16T15:00:34.244Z,17.60
2019-01-16T15:03:23.304Z,14.70
2019-01-16T15:06:04.483Z,15.27
2019-01-16T15:08:36.323Z,14.10
2019-01-16T15:11:07.303Z,16.53
2019-01-16T15:13:53.560Z,15.37
2019-01-16T15:16:36.844Z,13.97
2019-01-16T15:19:08.163Z,12.37
2019-01-16T15:21:41.920Z,11.97
2019-01-16T15:24:13.241Z,9.10
2019-01-16T15:26:56.000Z,7.47
2019-01-16T15:29:29.921Z,8.73
2019-01-16T15:32:00.700Z,8.93
2019-01-16T15:34:34.261Z,8.93
2019-01-16T15:37:05.563Z,9.40
2019-01-16T15:39:36.385Z,9.23
2019-01-16T15:42:27.602Z,9.13
2019-01-16T15:45:15.021Z,12.50
2019-01-16T15:48:02.922Z,10.23
2019-01-16T15:50:50.441Z,10.77
2019-01-16T15:53:27.320Z,10.47
2019-01-16T15:56:01.186Z,9.23
2019-01-16T15:58:35.341Z,6.30
2019-01-16T16:01:15.829Z,7.13
2019-01-16T16:03:52.952Z,9.33
2019-01-16T16:06:24.229Z,15.87
2019-01-16T16:08:55.411Z,16.30
2019-01-16T16:11:32.852Z,14.43
2019-01-16T16:14:13.417Z,15.93
2019-01-16T16:17:01.190Z,16.80
2019-01-16T16:19:35.435Z,13.93
2019-01-16T16:22:09.591Z,13.03
2019-01-16T16:24:46.489Z,11.90
2019-01-16T16:27:23.330Z,11.10
2019-01-16T16:29:57.091Z,11.07
2019-01-16T16:32:30.711Z,13.00
2019-01-16T16:35:04.591Z,15.83
2019-01-16T16:37:51.871Z,22.87
2019-01-16T16:40:26.050Z,10.30
2019-01-16T16:43:13.090Z,9.33
2019-01-16T16:46:04.029Z,9.83
2019-01-16T16:48:35.045Z,11.17
2019-01-16T16:51:15.590Z,11.43
2019-01-16T16:53:55.092Z,9.90
2019-01-16T16:56:43.371Z,11.03
2019-01-16T16:59:14.910Z,13.37
2019-01-16T17:01:49.146Z,12.37
2019-01-16T17:04:20.261Z,11.43
2019-01-16T17:07:09.482Z,10.87
2019-01-16T17:09:58.263Z,13.00
2019-01-16T17:12:44.120Z,12.17
2019-01-16T17:15:27.881Z,12.37
2019-01-16T17:17:59.083Z,9.97
2019-01-16T17:20:39.278Z,9.70
2019-01-16T17:23:13.301Z,9.33
2019-01-16T17:26:01.183Z,9.30
2019-01-16T17:28:32.424Z,11.83
2019-01-16T17:31:22.068Z,10.73
2019-01-16T17:33:58.842Z,11.63
2019-01-16T17:36:45.398Z,11.40
2019-01-16T17:39:19.741Z,9.80
2019-01-16T17:41:53.622Z,9.00
2019-01-16T17:44:42.722Z,9.47
2019-01-16T17:47:30.621Z,13.33
2019-01-16T17:50:17.841Z,12.30
2019-01-16T17:52:55.362Z,20.20
2019-01-16T17:58:23.842Z,17.93
2019-01-16T18:01:06.610Z,19.40
2019-01-16T18:03:49.530Z,15.70
2019-01-16T18:06:23.140Z,16.03
2019-01-16T18:09:03.060Z,8.43
2019-01-16T18:11:37.067Z,6.93
2019-01-16T18:14:11.199Z,7.07
2019-01-16T18:16:58.855Z,10.00
2019-01-16T18:19:44.940Z,11.07
2019-01-16T18:22:19.300Z,10.17
2019-01-16T18:24:53.140Z,7.87
2019-01-16T18:27:30.921Z,8.80
2019-01-16T18:30:17.281Z,8.70
2019-01-16T18:32:48.400Z,10.80
2019-01-16T18:35:35.619Z,13.93
2019-01-16T18:38:25.280Z,16.47
2019-01-16T18:40:59.140Z,16.20
2019-01-16T18:43:46.406Z,17.00
2019-01-16T18:46:26.340Z,10.30
2019-01-16T18:49:04.561Z,11.00
2019-01-16T18:51:41.700Z,10.77
2019-01-16T18:54:14.940Z,10.93
2019-01-16T18:56:58.201Z,8.60
2019-01-16T18:59:35.240Z,7.90
2019-01-16T19:02:23.707Z,8.57
2019-01-16T19:05:04.285Z,7.37
2019-01-16T19:07:44.309Z,8.73
2019-01-16T19:10:21.645Z,7.80
2019-01-16T19:12:55.326Z,7.90
2019-01-16T19:15:26.726Z,7.80
2019-01-16T19:17:57.446Z,7.60
2019-01-16T19:20:31.285Z,7.57
2019-01-16T19:23:02.225Z,8.33
2019-01-16T19:28:41.002Z,7.50
2019-01-16T19:31:17.643Z,8.20
2019-01-16T19:33:49.068Z,8.63
2019-01-16T19:36:19.882Z,8.17
2019-01-16T19:38:50.505Z,8.00
2019-01-16T19:41:27.343Z,7.70
2019-01-16T19:44:15.684Z,7.40
2019-01-16T19:46:48.969Z,7.50
2019-01-16T19:49:26.507Z,7.50
2019-01-16T19:51:57.863Z,7.37
2019-01-16T19:54:32.101Z,7.33
2019-01-16T19:57:09.121Z,7.67
2019-01-16T19:59:46.266Z,7.90
2019-01-16T20:02:36.002Z,7.20
2019-01-16T20:05:14.003Z,7.07
2019-01-16T20:07:56.583Z,7.07
2019-01-16T20:10:27.563Z,7.13
2019-01-16T20:12:58.605Z,7.50
2019-01-16T20:18:24.193Z,7.33
2019-01-16T20:21:11.709Z,7.33
2019-01-16T20:23:59.091Z,7.43
2019-01-16T20:26:42.468Z,7.60
2019-01-16T20:29:21.023Z,6.33
2019-01-16T20:32:02.271Z,7.10
2019-01-16T20:34:34.343Z,7.27
2019-01-16T20:37:09.249Z,7.07
2019-01-16T20:39:40.188Z,7.60
2019-01-16T20:42:11.286Z,7.10
2019-01-16T20:44:58.326Z,6.90
2019-01-16T20:47:31.844Z,6.87
2019-01-16T20:50:04.408Z,6.50
2019-01-16T20:52:50.863Z,7.17
2019-01-16T20:55:27.542Z,6.80
2019-01-16T20:58:15.082Z,6.67
2019-01-16T21:01:02.223Z,7.30
2019-01-16T21:03:36.010Z,7.33
2019-01-16T21:06:08.126Z,9.87
2019-01-16T21:08:52.887Z,17.30
2019-01-16T21:11:36.104Z,19.60
2019-01-16T21:14:09.925Z,20.27
2019-01-16T21:16:52.604Z,18.10
2019-01-16T21:19:33.551Z,16.87
2019-01-16T21:22:04.779Z,17.90
2019-01-16T21:24:51.973Z,17.10
2019-01-16T21:27:23.651Z,16.50
2019-01-16T21:30:09.352Z,19.53
2019-01-16T21:32:43.711Z,20.13
2019-01-16T21:35:14.829Z,22.57
2019-01-16T21:37:45.669Z,23.70
2019-01-16T21:40:16.392Z,19.60
2019-01-16T21:42:50.645Z,18.40
2019-01-16T21:45:24.444Z,18.47
2019-01-16T21:48:07.785Z,19.20
2019-01-16T21:50:40.066Z,19.20
2019-01-16T21:53:14.607Z,18.50
2019-01-16T21:58:29.441Z,16.83
2019-01-16T22:01:09.744Z,17.67
2019-01-16T22:03:52.612Z,17.30
2019-01-16T22:06:23.648Z,14.67
2019-01-16T22:08:54.989Z,15.40
2019-01-16T22:11:44.377Z,14.70
2019-01-16T22:14:15.464Z,14.17
2019-01-16T22:16:46.522Z,14.80
2019-01-16T22:19:30.040Z,16.43
2019-01-16T22:22:17.942Z,17.43
2019-01-16T22:24:51.602Z,18.17
2019-01-16T22:27:22.544Z,17.40
2019-01-16T22:29:56.109Z,18.80
2019-01-16T22:32:43.403Z,18.07
2019-01-16T22:35:20.071Z,14.33
2019-01-16T22:38:09.948Z,13.23
2019-01-16T22:40:55.891Z,11.57
2019-01-16T22:43:45.607Z,11.03
2019-01-16T22:46:16.528Z,10.60
2019-01-16T22:48:59.188Z,11.00
2019-01-16T22:51:38.686Z,11.40
2019-01-16T22:54:25.907Z,11.03
2019-01-16T22:57:05.907Z,10.07
2019-01-16T22:59:37.768Z,9.30
2019-01-16T23:02:14.767Z,9.73
2019-01-16T23:04:45.534Z,9.80
2019-01-16T23:07:16.885Z,8.73
2019-01-16T23:09:47.803Z,10.17
2019-01-16T23:12:20.489Z,9.30
2019-01-16T23:14:51.242Z,9.70
2019-01-16T23:17:37.224Z,10.07
2019-01-16T23:20:13.604Z,9.40
2019-01-16T23:22:54.423Z,10.57
2019-01-16T23:25:25.442Z,10.00
2019-01-16T23:28:14.127Z,10.47
2019-01-16T23:31:03.361Z,9.80
2019-01-16T23:33:40.163Z,9.87
2019-01-16T23:36:17.081Z,9.43
2019-01-16T23:38:47.761Z,9.00
2019-01-16T23:41:18.562Z,7.50
2019-01-16T23:44:05.840Z,7.67
2019-01-16T23:46:55.060Z,7.87
2019-01-16T23:49:42.381Z,6.77
2019-01-16T23:52:16.323Z,7.00
2019-01-16T23:54:56.442Z,6.70
2019-01-16T23:57:37.081Z,6.53
